Time;durP1;ratioP1;P1;durP2;ratioP2;P2;SDS_P1;SDS_P2;PMS_P1;PMS_P2;Temp;Humidity;BMP_temperature;BMP_pressure;BME280_temperature;BME280_humidity;BME280_pressure;Samples;Min_cycle;Max_cycle;Signal;HPM_P1;HPM_P2
2022/06/20 00:00:38;;;;;;;3.62;1.47;;;;;;;19.08;100.00;99349.83;1712850;82;21602;-64
2022/06/20 00:03:05;;;;;;;3.75;1.37;;;;;;;19.05;100.00;99337.28;1688727;83;21442;-64
2022/06/20 00:05:33;;;;;;;6.50;1.50;;;;;;;19.03;100.00;99347.27;1711437;82;21602;-63
2022/06/20 00:08:01;;;;;;;4.22;1.30;;;;;;;19.01;100.00;99348.18;1719357;82;20975;-63
2022/06/20 00:10:29;;;;;;;4.58;1.47;;;;;;;19.04;100.00;99344.75;1711517;82;21050;-64
2022/06/20 00:12:55;;;;;;;3.42;1.47;;;;;;;19.03;100.00;99346.45;1712939;82;21027;-63
2022/06/20 00:15:32;;;;;;;4.97;1.30;;;;;;;18.99;100.00;99341.39;1703417;83;21078;-63
2022/06/20 00:18:01;;;;;;;4.17;1.65;;;;;;;18.95;100.00;99340.45;1708975;82;20973;-63
2022/06/20 00:20:29;;;;;;;3.10;1.25;;;;;;;18.91;100.00;99343.64;1703683;82;21102;-64
2022/06/20 00:22:56;;;;;;;3.70;1.27;;;;;;;18.86;100.00;99335.80;1718443;82;20980;-63
2022/06/20 00:25:24;;;;;;;3.42;1.32;;;;;;;18.83;100.00;99342.55;1719586;82;21047;-63
2022/06/20 00:27:53;;;;;;;6.25;1.50;;;;;;;18.81;100.00;99348.99;1738188;81;21023;-64
2022/06/20 00:30:21;;;;;;;2.95;1.20;;;;;;;18.83;100.00;99345.31;1757073;81;21039;-63
2022/06/20 00:32:47;;;;;;;6.10;1.50;;;;;;;18.81;100.00;99348.39;1748559;80;21027;-64
2022/06/20 00:35:15;;;;;;;4.30;1.50;;;;;;;18.76;100.00;99347.23;1732186;82;21019;-64
2022/06/20 00:37:43;;;;;;;4.28;1.40;;;;;;;18.71;100.00;99346.61;1744792;80;20962;-64
2022/06/20 00:40:33;;;;;;;4.25;1.40;;;;;;;18.65;100.00;99343.81;1751194;80;21059;-64
2022/06/20 00:43:00;;;;;;;3.15;1.40;;;;;;;18.60;100.00;99344.03;1717321;83;20977;-64
2022/06/20 00:45:28;;;;;;;5.53;1.40;;;;;;;18.52;100.00;99344.31;1744452;81;21091;-63
2022/06/20 00:48:00;;;;;;;2.95;1.57;;;;;;;18.51;100.00;99343.25;1752271;80;21031;-63
2022/06/20 00:50:30;;;;;;;2.65;1.20;;;;;;;18.50;100.00;99342.98;1708123;82;21023;-64
2022/06/20 00:53:05;;;;;;;3.35;1.20;;;;;;;18.45;100.00;99337.67;1740769;80;21029;-64
2022/06/20 00:55:40;;;;;;;5.40;1.45;;;;;;;18.38;100.00;99339.02;1745413;80;21558;-63
2022/06/20 00:58:24;;;;;;;4.22;1.45;;;;;;;18.34;100.00;99339.44;1742233;81;20968;-64
2022/06/20 01:00:50;;;;;;;5.17;1.20;;;;;;;18.26;100.00;99332.58;1742529;80;21104;-64
2022/06/20 01:03:23;;;;;;;4.10;1.32;;;;;;;18.19;100.00;99335.05;1711927;82;21012;-64
2022/06/20 01:05:56;;;;;;;2.17;1.17;;;;;;;18.14;100.00;99326.39;1739590;81;21076;-64
2022/06/20 01:08:28;;;;;;;3.90;1.65;;;;;;;18.14;100.00;99333.27;1732289;80;21542;-64
2022/06/20 01:11:04;;;;;;;3.37;1.45;;;;;;;18.11;100.00;99327.05;1739571;80;21506;-65
2022/06/20 01:13:30;;;;;;;4.92;1.30;;;;;;;18.05;100.00;99322.06;1746703;80;21035;-64
2022/06/20 01:16:31;;;;;;;2.58;1.30;;;;;;;17.96;100.00;99320.72;1746261;80;21044;-63
2022/06/20 01:19:00;;;;;;;2.60;1.40;;;;;;;17.88;100.00;99318.83;1734578;81;21023;-64
2022/06/20 01:21:31;;;;;;;4.58;1.60;;;;;;;17.78;100.00;99321.34;1749720;80;20924;-64
2022/06/20 01:24:10;;;;;;;3.08;1.55;;;;;;;17.76;100.00;99320.88;1755326;80;21015;-64
2022/06/20 01:26:48;;;;;;;3.30;1.22;;;;;;;17.77;100.00;99322.51;1745973;80;20940;-64
2022/06/20 01:29:15;;;;;;;2.75;1.35;;;;;;;17.76;100.00;99322.26;1737836;80;21050;-64
2022/06/20 01:31:52;;;;;;;2.58;1.27;;;;;;;17.72;100.00;99316.36;1742027;81;20975;-64
2022/06/20 01:34:18;;;;;;;3.02;1.40;;;;;;;17.71;100.00;99320.27;1742216;80;21035;-65
2022/06/20 01:39:34;;;;;;;3.67;1.30;;;;;;;17.65;100.00;99311.92;1744092;81;21019;-64
2022/06/20 01:42:19;;;;;;;3.58;1.40;;;;;;;17.63;100.00;99305.39;1743171;81;21015;-64
2022/06/20 01:44:55;;;;;;;4.12;1.50;;;;;;;17.69;100.00;99310.13;1720750;82;21126;-64
2022/06/20 01:47:22;;;;;;;3.83;1.30;;;;;;;17.70;100.00;99306.25;1747669;80;21066;-64
2022/06/20 01:49:51;;;;;;;3.30;1.12;;;;;;;17.69;100.00;99304.62;1748311;81;21063;-63
2022/06/20 01:52:37;;;;;;;4.50;1.25;;;;;;;17.68;100.00;99303.81;1722690;82;20961;-64
2022/06/20 01:55:09;;;;;;;2.10;1.25;;;;;;;17.69;100.00;99301.88;1743197;80;21434;-63
2022/06/20 01:57:39;;;;;;;3.52;1.50;;;;;;;17.70;100.00;99304.88;1746235;80;21512;-63
2022/06/20 02:00:10;;;;;;;3.58;1.27;;;;;;;17.69;100.00;99302.69;1744954;81;21114;-63
2022/06/20 02:02:41;;;;;;;3.17;1.20;;;;;;;17.72;100.00;99303.41;1719760;80;21002;-63
2022/06/20 02:05:10;;;;;;;2.75;1.17;;;;;;;17.77;100.00;99304.61;1733515;81;21096;-62
2022/06/20 02:07:37;;;;;;;3.37;1.25;;;;;;;17.81;100.00;99308.89;1742597;80;20952;-64
2022/06/20 02:10:06;;;;;;;2.35;1.30;;;;;;;17.80;100.00;99314.15;1746119;81;21064;-63
2022/06/20 02:12:34;;;;;;;2.05;1.10;;;;;;;17.81;100.00;99314.40;1747720;80;21442;-62
2022/06/20 02:15:00;;;;;;;2.60;1.45;;;;;;;17.82;100.00;99320.13;1717049;81;21530;-62
2022/06/20 02:17:37;;;;;;;2.98;1.37;;;;;;;17.81;100.00;99317.15;1756155;80;21007;-62
2022/06/20 02:20:11;;;;;;;3.05;1.20;;;;;;;17.82;100.00;99313.23;1744254;80;21644;-63
2022/06/20 02:22:38;;;;;;;2.98;1.10;;;;;;;17.81;100.00;99326.22;1760765;81;20940;-63
2022/06/20 02:25:09;;;;;;;2.77;1.40;;;;;;;17.85;100.00;99324.41;1734178;80;21589;-63
2022/06/20 02:27:57;;;;;;;5.00;1.12;;;;;;;17.91;100.00;99330.55;1749597;81;21509;-64
2022/06/20 02:30:23;;;;;;;2.22;1.02;;;;;;;17.93;100.00;99320.00;1712626;82;21632;-63
2022/06/20 02:32:54;;;;;;;3.40;1.07;;;;;;;17.94;100.00;99329.08;1717604;82;20959;-63
2022/06/20 02:35:21;;;;;;;3.95;1.20;;;;;;;17.97;100.00;99325.09;1686920;83;21679;-63
2022/06/20 02:37:48;;;;;;;2.55;1.12;;;;;;;18.03;100.00;99329.27;1707823;82;21030;-63
2022/06/20 02:42:10;;;;;;;2.67;1.20;;;;;;;18.14;100.00;99325.61;1808533;78;22825;-61
2022/06/20 02:44:37;;;;;;;3.92;1.30;;;;;;;18.08;100.00;99327.72;1755600;80;21090;-63
2022/06/20 02:47:04;;;;;;;2.42;1.20;;;;;;;18.14;100.00;99328.36;1729330;81;21031;-63
2022/06/20 02:49:31;;;;;;;2.75;1.02;;;;;;;18.20;100.00;99328.41;1736539;82;21516;-62
2022/06/20 02:51:57;;;;;;;3.55;1.20;;;;;;;18.29;100.00;99335.48;1744729;82;21074;-66
2022/06/20 02:54:27;;;;;;;;;;;;;;;18.36;100.00;99334.39;1749462;82;21023;-65
2022/06/20 02:56:58;;;;;;;3.98;1.00;;;;;;;18.44;100.00;99332.73;1725623;82;20144;-64
2022/06/20 02:59:32;;;;;;;5.67;1.12;;;;;;;18.45;100.00;99336.30;1719035;82;21071;-65
2022/06/20 03:02:04;;;;;;;1.80;1.00;;;;;;;18.51;100.00;99341.31;1728092;82;21073;-65
2022/06/20 03:04:33;;;;;;;2.33;1.20;;;;;;;18.60;100.00;99340.67;1740559;82;21023;-64
2022/06/20 03:07:07;;;;;;;3.55;1.10;;;;;;;18.70;100.00;99347.77;1727367;82;21011;-65
2022/06/20 03:09:37;;;;;;;3.27;1.07;;;;;;;18.78;100.00;99344.93;1726297;82;21114;-65
2022/06/20 03:12:05;;;;;;;3.58;0.95;;;;;;;18.86;100.00;99340.50;1727749;82;21054;-64
2022/06/20 03:14:38;;;;;;;2.12;0.90;;;;;;;18.97;100.00;99347.23;1728128;82;21107;-65
2022/06/20 03:17:05;;;;;;;4.33;1.20;;;;;;;19.09;100.00;99347.31;1741952;82;21541;-65
2022/06/20 03:19:33;;;;;;;1.60;1.10;;;;;;;19.24;100.00;99348.05;1725748;82;21055;-65
2022/06/20 03:22:03;;;;;;;2.87;1.37;;;;;;;19.42;100.00;99350.68;1746267;82;21502;-65
2022/06/20 03:24:29;;;;;;;5.45;1.50;;;;;;;19.54;100.00;99345.22;1721665;82;21688;-65
2022/06/20 03:26:56;;;;;;;1.77;0.98;;;;;;;19.66;100.00;99343.28;1742191;82;21074;-65
2022/06/20 03:29:25;;;;;;;3.27;1.30;;;;;;;19.75;100.00;99340.45;1728754;82;21083;-64
2022/06/20 03:31:53;;;;;;;1.90;1.20;;;;;;;19.87;100.00;99343.25;1744289;82;21086;-65
2022/06/20 03:34:21;;;;;;;2.20;1.00;;;;;;;20.00;100.00;99349.02;1739575;82;21038;-65
2022/06/20 03:36:47;;;;;;;2.87;1.20;;;;;;;20.22;100.00;99344.44;1708530;82;21002;-65
2022/06/20 03:39:15;;;;;;;2.50;1.10;;;;;;;20.50;100.00;99334.90;1712021;83;21054;-65
2022/06/20 03:41:42;;;;;;;1.87;0.95;;;;;;;20.76;100.00;99333.14;1664486;84;21078;-65
2022/06/20 03:44:22;;;;;;;2.22;1.07;;;;;;;21.00;100.00;99328.93;1724982;82;21084;-65
2022/06/20 03:47:03;;;;;;;2.77;1.05;;;;;;;21.20;100.00;99323.81;1669717;85;21557;-65
2022/06/20 03:49:48;;;;;;;2.17;0.95;;;;;;;21.39;100.00;99320.39;1713803;82;21087;-65
2022/06/20 03:52:20;;;;;;;2.50;1.20;;;;;;;21.57;100.00;99315.34;1714134;82;21055;-64
2022/06/20 03:55:06;;;;;;;2.35;1.20;;;;;;;21.71;100.00;99312.38;1712573;82;21736;-63
2022/06/20 03:58:13;;;;;;;4.33;1.10;;;;;;;21.81;100.00;99306.87;1724063;82;21032;-63
2022/06/20 04:00:53;;;;;;;4.00;1.20;;;;;;;21.91;100.00;99304.98;1718423;82;21111;-63
2022/06/20 04:03:26;;;;;;;4.03;1.00;;;;;;;22.04;100.00;99306.50;1718309;82;21468;-61
2022/06/20 04:06:08;;;;;;;1.95;0.95;;;;;;;22.23;100.00;99294.12;1727073;82;21095;-62
2022/06/20 04:11:34;;;;;;;2.80;0.90;;;;;;;22.53;100.00;99283.31;1713742;82;21039;-62
2022/06/20 04:14:18;;;;;;;2.00;0.93;;;;;;;22.67;100.00;99283.66;1712696;82;21004;-62
2022/06/20 04:16:59;;;;;;;2.17;0.90;;;;;;;22.95;100.00;99269.62;1724769;82;21098;-62
2022/06/20 04:19:32;;;;;;;2.98;1.00;;;;;;;22.95;100.00;99269.62;1720363;82;21042;-62
2022/06/20 04:22:10;;;;;;;3.60;1.10;;;;;;;23.12;100.00;99269.17;1719175;82;21020;-62
2022/06/20 04:24:49;;;;;;;5.05;1.00;;;;;;;23.37;100.00;99259.94;1712799;82;21090;-63
2022/06/20 04:27:37;;;;;;;4.47;1.10;;;;;;;23.53;100.00;99266.20;1734757;82;21510;-63
2022/06/20 04:30:10;;;;;;;2.00;0.95;;;;;;;23.70;100.00;99254.60;1723840;82;21031;-63
2022/06/20 04:32:47;;;;;;;4.05;1.00;;;;;;;23.85;100.00;99250.68;1719656;82;20967;-63
2022/06/20 04:35:24;;;;;;;3.30;1.10;;;;;;;24.01;100.00;99243.83;1717878;82;21013;-63
2022/06/20 04:37:58;;;;;;;3.58;1.00;;;;;;;24.16;100.00;99242.89;1714572;82;20991;-63
2022/06/20 04:40:37;;;;;;;2.77;1.10;;;;;;;24.32;100.00;99237.76;1715902;82;21075;-63
2022/06/20 04:43:27;;;;;;;1.82;0.88;;;;;;;24.46;100.00;99228.23;1734352;82;21447;-63
2022/06/20 04:46:00;;;;;;;3.40;0.90;;;;;;;24.54;100.00;99223.79;1752065;82;21082;-62
2022/06/20 04:48:27;;;;;;;3.05;0.93;;;;;;;24.66;100.00;99223.53;1739240;81;21514;-63
2022/06/20 04:51:00;;;;;;;2.40;1.00;;;;;;;24.79;100.00;99221.33;1725018;82;21019;-63
2022/06/20 04:53:34;;;;;;;3.35;1.10;;;;;;;24.93;100.00;99222.13;1732952;82;21055;-63
2022/06/20 04:56:04;;;;;;;2.83;0.82;;;;;;;25.14;100.00;99220.98;1742224;82;21067;-61
2022/06/20 04:58:44;;;;;;;1.42;0.93;;;;;;;25.43;99.73;99226.27;1735238;82;20975;-63
2022/06/20 05:01:11;;;;;;;3.40;0.90;;;;;;;25.62;96.82;99219.09;1726893;82;21078;-62
2022/06/20 05:03:45;;;;;;;3.62;0.90;;;;;;;25.76;96.28;99222.01;1739725;82;21003;-62
2022/06/20 05:06:22;;;;;;;3.52;0.98;;;;;;;25.94;96.11;99224.36;1733473;82;21118;-62
2022/06/20 05:08:53;;;;;;;4.25;0.98;;;;;;;26.18;88.18;99229.34;1724141;82;20998;-60
2022/06/20 05:11:42;;;;;;;1.65;1.00;;;;;;;26.27;90.36;99219.84;1742667;82;21121;-62
2022/06/20 05:14:25;;;;;;;3.40;0.72;;;;;;;26.48;88.22;99229.16;1733046;82;21102;-63
2022/06/20 05:16:53;;;;;;;3.17;1.02;;;;;;;26.70;85.72;99237.05;1722581;82;21050;-61
2022/06/20 05:19:29;;;;;;;3.67;0.85;;;;;;;26.92;81.44;99235.99;1744744;82;21935;-61
2022/06/20 05:22:00;;;;;;;2.20;1.12;;;;;;;27.15;84.77;99238.45;1708223;82;20975;-60
2022/06/20 05:28:19;;;;;;;;;;;;;;;27.69;73.77;99231.81;1869287;74;22774;-60
2022/06/20 05:30:46;;;;;;;2.10;0.90;;;;;;;27.68;67.03;99240.00;1849410;75;20417;-59
2022/06/20 05:33:28;;;;;;;1.75;0.80;;;;;;;27.71;68.42;99230.81;1844994;77;21522;-60
2022/06/20 05:36:06;;;;;;;2.98;0.80;;;;;;;27.96;69.04;99227.42;1811186;79;21513;-60
2022/06/20 05:38:40;;;;;;;3.00;0.90;;;;;;;28.35;68.02;99239.20;1766951;79;21578;-60
2022/06/20 05:41:08;;;;;;;3.40;0.75;;;;;;;28.62;63.58;99234.17;1784895;79;20974;-59
2022/06/20 05:43:36;;;;;;;1.77;1.15;;;;;;;28.79;61.53;99225.53;1767088;79;21569;-58
2022/06/20 05:46:10;;;;;;;3.75;0.80;;;;;;;28.98;60.76;99227.84;1771029;79;21084;-63
2022/06/20 05:48:49;;;;;;;1.67;0.80;;;;;;;29.22;57.81;99216.93;1729125;80;21007;-61
2022/06/20 05:51:17;;;;;;;3.00;0.60;;;;;;;29.25;54.56;99210.50;1775127;80;21003;-62
2022/06/20 05:53:57;;;;;;;1.37;0.70;;;;;;;29.33;53.21;99206.48;1793818;78;21444;-63
2022/06/20 05:56:29;;;;;;;2.75;1.00;;;;;;;29.38;52.51;99194.22;1803010;78;21397;-62
2022/06/20 05:58:56;;;;;;;2.52;0.90;;;;;;;29.26;52.87;99182.10;1778185;78;21019;-65
2022/06/20 06:01:30;;;;;;;4.87;0.70;;;;;;;29.22;51.40;99178.49;1795576;80;21051;-63
2022/06/20 06:04:28;;;;;;;2.05;0.60;;;;;;;29.23;51.08;99173.05;1789388;80;21015;-65
2022/06/20 06:06:59;;;;;;;1.80;0.70;;;;;;;29.26;51.54;99175.09;1771324;80;21587;-63
2022/06/20 06:09:59;;;;;;;1.52;0.60;;;;;;;29.31;50.57;99176.05;1783880;79;21094;-63
2022/06/20 06:12:40;;;;;;;1.85;0.60;;;;;;;29.48;49.62;99169.52;1754792;80;21047;-66
2022/06/20 06:15:18;;;;;;;0.88;0.65;;;;;;;29.75;50.63;99155.69;1801284;77;21043;-64
2022/06/20 06:17:54;;;;;;;3.33;0.75;;;;;;;30.03;49.63;99149.05;1808962;77;21715;-62
2022/06/20 06:20:23;;;;;;;3.80;0.60;;;;;;;30.21;47.37;99139.84;1761454;80;21099;-66
2022/06/20 06:22:55;;;;;;;2.08;0.78;;;;;;;30.11;46.03;99142.92;1787793;79;21057;-65
2022/06/20 06:25:31;;;;;;;1.87;0.60;;;;;;;30.09;47.33;99143.96;1816667;79;21506;-65
2022/06/20 06:28:07;;;;;;;0.72;0.42;;;;;;;30.18;47.53;99144.09;1819321;79;21602;-64
2022/06/20 06:30:45;;;;;;;3.52;0.55;;;;;;;30.44;48.79;99141.39;1766539;79;21029;-63
2022/06/20 06:33:43;;;;;;;1.62;0.53;;;;;;;30.85;47.79;99138.48;1797973;77;21002;-64
2022/06/20 06:36:49;;;;;;;1.65;0.70;;;;;;;31.11;46.63;99138.96;1819025;79;21092;-65
2022/06/20 06:39:24;;;;;;;2.45;0.57;;;;;;;31.43;46.75;99139.24;1817992;79;21054;-63
2022/06/20 06:41:56;;;;;;;2.95;0.55;;;;;;;31.82;44.74;99130.98;1787260;80;21900;-63
2022/06/20 06:44:34;;;;;;;1.60;0.50;;;;;;;32.17;42.59;99116.12;1785761;79;21026;-63
2022/06/20 06:47:00;;;;;;;2.80;0.70;;;;;;;32.22;40.36;99114.98;1806414;79;21002;-64
2022/06/20 06:49:44;;;;;;;2.45;0.53;;;;;;;32.10;39.12;99110.63;1796940;79;21063;-61
2022/06/20 06:52:23;;;;;;;3.33;0.60;;;;;;;31.94;38.21;99119.72;1753770;80;20995;-64
2022/06/20 06:54:59;;;;;;;3.12;0.50;;;;;;;31.71;38.01;99119.11;1800805;79;21002;-65
2022/06/20 06:57:45;;;;;;;2.60;0.53;;;;;;;31.50;39.73;99111.00;1823179;77;21520;-64
2022/06/20 07:00:23;;;;;;;1.25;0.50;;;;;;;31.63;39.86;99107.02;1814665;79;21002;-63
2022/06/20 07:02:56;;;;;;;1.45;0.50;;;;;;;31.78;39.82;99099.92;1793481;79;21084;-64
2022/06/20 07:05:38;;;;;;;2.72;0.50;;;;;;;31.86;39.04;99101.37;1797317;79;21060;-63
2022/06/20 07:08:21;;;;;;;1.42;0.40;;;;;;;31.93;37.70;99102.03;1811243;79;21066;-65
2022/06/20 07:19:32;;;;;;;2.15;0.57;;;;;;;32.45;35.09;99110.69;1749212;80;21123;-71
2022/06/20 07:21:58;;;;;;;3.37;0.40;;;;;;;32.35;34.81;99118.74;1757284;80;21032;-71
2022/06/20 07:24:27;;;;;;;2.67;0.40;;;;;;;32.30;35.34;99117.86;1787810;80;21059;-70
2022/06/20 07:27:01;;;;;;;2.95;0.40;;;;;;;32.28;34.83;99109.64;1778432;80;21047;-70
2022/06/20 07:29:32;;;;;;;1.57;0.50;;;;;;;32.31;35.21;99124.28;1766041;80;21028;-72
2022/06/20 07:32:25;;;;;;;1.60;0.62;;;;;;;32.35;34.99;99124.37;1778035;80;21047;-70
2022/06/20 07:34:57;;;;;;;1.05;0.37;;;;;;;32.27;36.17;99120.13;1769287;78;21623;-72
2022/06/20 07:37:31;;;;;;;3.17;0.50;;;;;;;32.21;37.25;99115.41;1787699;80;21087;-71
2022/06/20 07:40:23;;;;;;;0.90;0.53;;;;;;;32.31;37.06;99118.02;1769734;80;21008;-72
2022/06/20 07:43:08;;;;;;;1.62;0.68;;;;;;;32.33;37.95;99116.98;1757194;80;21075;-70
2022/06/20 07:45:38;;;;;;;1.35;0.60;;;;;;;32.36;37.97;99107.66;1791550;79;20967;-73
2022/06/20 07:48:13;;;;;;;2.08;0.40;;;;;;;32.72;37.44;99106.95;1803054;79;21312;-71
2022/06/20 07:57:02;;;;;;;;;;;;;;;33.07;36.18;99103.33;1757517;77;21189;-66
2022/06/20 07:59:53;;;;;;;3.42;0.60;;;;;;;33.18;35.36;99096.86;1707703;82;20107;-67
2022/06/20 08:02:38;;;;;;;4.72;0.85;;;;;;;33.09;35.30;99100.09;1714937;82;21036;-66
2022/06/20 08:05:07;;;;;;;2.60;0.47;;;;;;;33.32;34.01;99100.75;1713435;82;21035;-67
2022/06/20 08:07:42;;;;;;;1.65;0.47;;;;;;;33.37;34.78;99099.44;1731262;82;21104;-68
2022/06/20 08:10:32;;;;;;;;;;;;;;;33.56;33.92;99104.17;1753869;81;21001;-68
2022/06/20 08:13:24;;;;;;;2.27;0.60;;;;;;;33.68;33.92;99097.86;1753760;82;20110;-66
2022/06/20 08:16:21;;;;;;;1.37;0.40;;;;;;;33.51;34.24;99085.74;1700608;80;21172;-68
2022/06/20 08:18:49;;;;;;;3.12;0.60;;;;;;;33.47;33.26;99085.06;1752736;80;21007;-69
2022/06/20 08:21:24;;;;;;;3.55;0.50;;;;;;;33.51;33.68;99089.20;1766944;79;21093;-69
2022/06/20 08:24:10;;;;;;;1.90;0.65;;;;;;;33.60;34.36;99082.31;1779014;80;20966;-67
2022/06/20 08:26:51;;;;;;;1.45;0.40;;;;;;;33.61;33.22;99088.75;1780499;80;21054;-69
2022/06/20 08:29:29;;;;;;;3.33;0.68;;;;;;;33.52;33.44;99088.75;1786220;80;20963;-69
2022/06/20 08:32:01;;;;;;;1.62;0.50;;;;;;;33.56;33.21;99085.83;1758123;81;21543;-68
2022/06/20 08:34:41;;;;;;;2.05;0.50;;;;;;;33.54;33.31;99074.21;1781566;79;20990;-67
2022/06/20 08:37:24;;;;;;;2.62;0.50;;;;;;;33.46;34.79;99084.08;1776729;79;21042;-69
2022/06/20 08:40:06;;;;;;;1.72;0.60;;;;;;;33.60;34.01;99078.69;1779906;79;20935;-69
2022/06/20 08:56:40;;;;;;;3.12;0.53;;;;;;;33.46;35.23;99072.80;1707094;81;21603;-67
2022/06/20 08:59:37;;;;;;;4.42;0.80;;;;;;;32.97;35.73;99079.00;1791438;78;21464;-67
2022/06/20 09:02:21;;;;;;;1.90;0.40;;;;;;;32.49;36.52;99077.61;1771637;81;21019;-67
2022/06/20 09:05:00;;;;;;;4.70;0.50;;;;;;;32.19;38.23;99081.27;1756743;81;21042;-67
2022/06/20 09:07:56;;;;;;;3.33;0.57;;;;;;;32.12;38.73;99065.92;1749415;80;20987;-65
2022/06/20 09:10:34;;;;;;;1.25;0.60;;;;;;;32.04;36.98;99070.87;1738736;81;21069;-65
2022/06/20 09:13:22;;;;;;;2.62;0.68;;;;;;;31.84;37.86;99060.20;1792947;79;21492;-64
2022/06/20 09:15:56;;;;;;;2.20;0.60;;;;;;;31.69;38.75;99063.89;1794720;79;21042;-64
2022/06/20 09:18:49;;;;;;;2.42;0.98;;;;;;;31.44;38.54;99057.27;1798467;79;20962;-69
2022/06/20 09:21:29;;;;;;;2.50;0.50;;;;;;;31.45;39.60;99054.65;1808375;79;21006;-68
2022/06/20 09:24:11;;;;;;;2.08;0.50;;;;;;;31.47;38.40;99045.77;1785687;79;20959;-67
2022/06/20 09:27:08;;;;;;;1.92;0.50;;;;;;;31.39;39.89;99044.32;1783823;79;21478;-65
2022/06/20 09:30:13;;;;;;;2.77;0.65;;;;;;;31.22;39.50;99049.61;1811644;79;21693;-66
2022/06/20 09:32:53;;;;;;;2.33;0.60;;;;;;;31.15;38.68;99045.50;1781771;79;21449;-67
2022/06/20 09:35:48;;;;;;;3.12;1.00;;;;;;;31.11;39.75;99045.56;1801581;79;21043;-67
2022/06/20 09:38:41;;;;;;;5.60;0.50;;;;;;;31.15;41.41;99046.30;1798962;79;21500;-68
2022/06/20 09:41:36;;;;;;;1.80;0.50;;;;;;;31.19;41.14;99047.05;1779995;79;21500;-63
2022/06/20 09:44:19;;;;;;;3.25;0.60;;;;;;;31.13;39.95;99045.95;1762804;80;20946;-65
2022/06/20 09:47:15;;;;;;;2.92;0.62;;;;;;;31.01;39.36;99040.91;1767249;80;21450;-62
2022/06/20 09:50:24;;;;;;;2.22;0.62;;;;;;;30.97;42.16;99047.19;1737082;81;21043;-63
2022/06/20 09:53:04;;;;;;;2.92;0.50;;;;;;;30.99;41.56;99044.77;1766948;80;20987;-63
2022/06/20 09:55:54;;;;;;;3.75;0.88;;;;;;;31.00;41.60;99040.72;1785040;79;21113;-64
2022/06/20 09:58:48;;;;;;;2.62;0.57;;;;;;;30.90;40.74;99055.09;1792089;79;20986;-65
2022/06/20 10:01:26;;;;;;;2.92;0.65;;;;;;;30.84;39.27;99043.36;1798406;79;20998;-64
2022/06/20 10:04:04;;;;;;;2.00;0.50;;;;;;;30.81;39.71;99033.77;1774182;80;21402;-64
2022/06/20 10:06:54;;;;;;;1.25;0.40;;;;;;;30.78;39.92;99024.79;1774542;78;21005;-63
2022/06/20 10:09:36;;;;;;;1.67;0.70;;;;;;;30.75;39.27;99027.02;1785783;80;21576;-62
2022/06/20 10:12:35;;;;;;;1.80;0.50;;;;;;;30.72;41.04;99023.66;1771713;80;21027;-62
2022/06/20 10:15:36;;;;;;;3.00;0.55;;;;;;;30.70;39.98;99023.90;1796750;79;21611;-64
2022/06/20 10:18:34;;;;;;;2.72;0.70;;;;;;;30.72;41.29;99020.84;1805184;79;20922;-63
2022/06/20 10:21:16;;;;;;;4.15;0.50;;;;;;;30.80;40.60;98999.86;1794437;79;21571;-64
2022/06/20 10:24:21;;;;;;;3.77;0.60;;;;;;;30.80;41.93;98999.86;1814533;79;21496;-65
2022/06/20 10:27:15;;;;;;;1.65;0.47;;;;;;;30.88;41.21;99001.34;1689533;83;21483;-64
2022/06/20 10:30:28;;;;;;;4.15;0.50;;;;;;;30.96;39.69;99003.44;1804587;79;21083;-65
2022/06/20 10:33:19;;;;;;;3.30;0.57;;;;;;;31.07;40.25;99004.86;1815747;78;21437;-62
2022/06/20 10:39:01;;;;;;;2.25;0.47;;;;;;;31.03;40.11;98997.13;1657925;86;21065;-69
2022/06/20 10:41:50;;;;;;;2.85;0.47;;;;;;;31.04;38.89;99001.50;1609016;87;21130;-69
2022/06/20 10:44:22;;;;;;;2.75;0.60;;;;;;;31.10;39.14;98997.61;1614166;86;21648;-69
2022/06/20 10:47:18;;;;;;;1.32;0.50;;;;;;;31.17;40.86;98999.51;1648969;85;21071;-68
2022/06/20 10:49:56;;;;;;;2.50;0.50;;;;;;;31.27;40.28;99003.54;1655542;86;21640;-69
2022/06/20 10:52:40;;;;;;;2.42;0.50;;;;;;;31.26;39.83;98999.73;1650152;86;21995;-71
2022/06/20 10:58:56;;;;;;;3.40;0.57;;;;;;;31.26;40.95;98992.71;1733143;81;21114;-69
2022/06/20 11:01:51;;;;;;;2.47;0.60;;;;;;;31.27;38.93;98988.08;1742607;80;21059;-67
2022/06/20 11:04:32;;;;;;;2.17;0.33;;;;;;;31.32;39.94;98974.14;1743852;82;21529;-69
2022/06/20 11:07:12;;;;;;;2.60;0.50;;;;;;;31.41;39.31;98978.59;1741640;80;21094;-69
2022/06/20 11:09:58;;;;;;;1.87;0.50;;;;;;;31.44;37.33;98974.91;1728888;81;21027;-69
2022/06/20 11:12:47;;;;;;;2.62;0.40;;;;;;;31.44;39.07;98971.49;1729847;82;21038;-70
2022/06/20 11:15:34;;;;;;;2.87;0.50;;;;;;;31.49;38.19;98961.16;1721159;82;21916;-69
2022/06/20 11:18:18;;;;;;;2.52;0.50;;;;;;;31.53;39.36;98952.05;1726543;82;21348;-68
2022/06/20 11:21:00;;;;;;;2.00;0.42;;;;;;;31.57;39.04;98944.95;1744358;80;21030;-70
2022/06/20 11:23:38;;;;;;;2.05;0.88;;;;;;;31.63;37.44;98946.06;1724426;82;21406;-71
2022/06/20 11:26:35;;;;;;;2.58;0.50;;;;;;;31.64;38.33;98957.47;1744651;80;21050;-69
2022/06/20 11:29:37;;;;;;;2.55;0.70;;;;;;;31.56;39.15;98959.66;1744026;80;20955;-71
2022/06/20 11:32:44;;;;;;;1.87;0.60;;;;;;;31.53;39.87;98945.66;1697094;83;21038;-69
2022/06/20 11:35:32;;;;;;;2.35;0.45;;;;;;;31.50;39.59;98940.84;1734900;80;21039;-70
2022/06/20 11:38:19;;;;;;;1.70;0.50;;;;;;;31.54;39.16;98936.77;1736425;82;21027;-70
2022/06/20 11:41:06;;;;;;;1.50;0.50;;;;;;;31.64;39.02;98931.38;1739010;80;21483;-70
2022/06/20 11:44:06;;;;;;;2.62;0.50;;;;;;;31.63;38.96;98938.23;1751912;81;20975;-70
2022/06/20 11:47:06;;;;;;;1.67;0.50;;;;;;;31.64;38.33;98932.79;1744501;80;21905;-69
2022/06/20 11:49:53;;;;;;;2.47;0.40;;;;;;;31.68;38.64;98928.66;1747476;81;20974;-69
2022/06/20 11:52:52;;;;;;;2.70;0.60;;;;;;;31.75;38.36;98924.90;1701144;83;21049;-68
2022/06/20 11:55:51;;;;;;;2.15;0.57;;;;;;;31.80;38.48;98921.59;1696892;84;21076;-69
2022/06/20 11:58:52;;;;;;;1.10;0.50;;;;;;;31.77;39.27;98920.45;1704619;83;21051;-68
2022/06/20 12:01:22;;;;;;;1.02;0.40;;;;;;;31.85;38.62;98915.47;1677290;85;21146;-70
2022/06/20 12:04:19;;;;;;;1.50;0.40;;;;;;;31.84;39.16;98910.45;1704010;83;21058;-69
2022/06/20 12:07:06;;;;;;;0.98;0.40;;;;;;;31.86;38.27;98912.81;1724271;80;21107;-70
2022/06/20 12:09:50;;;;;;;3.70;0.55;;;;;;;31.86;38.45;98901.56;1673401;85;21061;-69
2022/06/20 12:12:38;;;;;;;2.80;0.50;;;;;;;31.85;38.03;98907.03;1693128;83;21072;-70
2022/06/20 12:15:44;;;;;;;4.03;0.57;;;;;;;31.86;38.35;98904.37;1705635;83;20989;-69
2022/06/20 12:24:35;;;;;;;2.37;0.40;;;;;;;31.90;38.18;98896.04;1718649;83;20980;-69
2022/06/20 12:27:07;;;;;;;1.20;0.33;;;;;;;31.90;37.58;98883.38;1735234;78;21466;-66
2022/06/20 12:44:05;;;;;;;1.72;0.40;;;;;;;33.05;36.02;98857.06;1861834;77;23484;-67
2022/06/20 12:46:53;;;;;;;3.30;0.47;;;;;;;33.04;35.59;98849.06;1822924;78;21030;-65
2022/06/20 12:49:43;;;;;;;2.70;0.50;;;;;;;32.84;35.91;98854.04;1830676;78;21014;-69
2022/06/20 12:52:38;;;;;;;4.67;0.40;;;;;;;32.68;35.21;98844.97;1824535;78;21050;-66
2022/06/20 12:55:25;;;;;;;3.15;0.50;;;;;;;32.55;35.81;98845.48;1820977;78;21511;-68
2022/06/20 12:58:16;;;;;;;1.90;0.60;;;;;;;32.42;37.03;98841.77;1805885;78;21560;-67
2022/06/20 13:00:49;;;;;;;1.35;0.40;;;;;;;32.41;38.82;98837.39;1829212;76;21010;-67
2022/06/20 13:03:37;;;;;;;2.40;0.50;;;;;;;32.38;37.31;98836.22;1809609;78;21069;-67
2022/06/20 13:06:14;;;;;;;2.17;0.45;;;;;;;32.32;38.05;98828.13;1804490;79;21523;-68
2022/06/20 13:09:01;;;;;;;2.70;0.50;;;;;;;32.25;37.83;98827.51;1819406;78;21089;-68
2022/06/20 13:11:53;;;;;;;1.40;0.37;;;;;;;32.25;37.89;98819.06;1830967;78;21025;-67
2022/06/20 13:15:02;;;;;;;1.30;0.40;;;;;;;32.21;37.82;98809.91;1837433;78;21247;-67
2022/06/20 13:17:40;;;;;;;2.58;0.78;;;;;;;32.08;37.38;98816.86;1755008;81;21125;-66
2022/06/20 13:20:30;;;;;;;4.80;0.60;;;;;;;31.97;36.40;98812.05;1826077;76;21013;-68
2022/06/20 13:23:28;;;;;;;1.62;0.42;;;;;;;31.91;37.04;98815.22;1836872;78;21048;-68
2022/06/20 13:26:29;;;;;;;2.17;0.60;;;;;;;31.91;37.70;98803.97;1837103;78;21497;-69
2022/06/20 13:29:21;;;;;;;1.72;0.55;;;;;;;31.92;37.91;98791.48;1836647;76;20998;-67
2022/06/20 13:31:56;;;;;;;4.40;0.93;;;;;;;31.86;39.46;98805.88;1828215;78;21101;-68
2022/06/20 13:34:28;;;;;;;3.47;0.70;;;;;;;31.82;38.07;98808.77;1814981;78;21461;-67